Time;durP1;ratioP1;P1;durP2;ratioP2;P2;SDS_P1;SDS_P2;PMS_P1;PMS_P2;Temp;Humidity;BMP_temperature;BMP_pressure;BME280_temperature;BME280_humidity;BME280_pressure;Samples;Min_cycle;Max_cycle;Signal;HPM_P1;HPM_P2
2023/09/15 00:04:07;;;;;;;4.40;2.05;;;27.40;56.60;;;;;;10494613;28;20552;-31
2023/09/15 00:09:14;;;;;;;2.10;1.90;;;27.30;56.60;;;;;;10493264;28;20190;-35
2023/09/15 00:14:18;;;;;;;3.80;1.65;;;27.30;56.60;;;;;;10485413;28;20148;-35
2023/09/15 00:19:22;;;;;;;2.75;1.90;;;27.30;56.70;;;;;;10483389;28;20181;-34
2023/09/15 00:24:24;;;;;;;2.13;1.60;;;27.30;56.70;;;;;;10494452;28;20053;-36
2023/09/15 00:29:27;;;;;;;2.35;1.67;;;27.30;56.80;;;;;;10489980;28;20504;-37
2023/09/15 00:34:28;;;;;;;2.00;1.65;;;27.20;56.70;;;;;;10503109;28;20052;-38
2023/09/15 00:39:30;;;;;;;3.60;2.17;;;27.20;56.90;;;;;;10486019;28;20051;-38
2023/09/15 00:44:33;;;;;;;2.50;1.67;;;27.20;56.90;;;;;;10494362;28;20076;-35
2023/09/15 00:49:36;;;;;;;2.92;1.73;;;27.20;56.90;;;;;;10494847;28;20076;-38
2023/09/15 00:54:39;;;;;;;2.45;1.60;;;27.10;56.90;;;;;;10488470;28;20048;-34
2023/09/15 00:59:42;;;;;;;3.28;1.80;;;27.10;57.00;;;;;;10491812;28;20125;-38
2023/09/15 01:04:44;;;;;;;2.05;1.67;;;27.10;57.00;;;;;;10487851;28;20084;-34
2023/09/15 01:09:46;;;;;;;3.90;1.67;;;27.10;57.10;;;;;;10496813;28;20902;-36
2023/09/15 01:14:50;;;;;;;2.45;1.80;;;27.00;57.00;;;;;;10487355;28;20090;-31
2023/09/15 01:20:06;;;;;;;2.67;1.52;;;27.00;57.10;;;;;;10482675;28;20048;-35
2023/09/15 01:25:33;;;;;;;1.95;1.60;;;27.00;57.10;;;;;;10498800;28;20037;-33
2023/09/15 01:30:38;;;;;;;1.80;1.40;;;27.00;57.10;;;;;;10469850;28;20485;-33
2023/09/15 01:35:40;;;;;;;2.35;1.70;;;26.90;57.10;;;;;;10485320;28;20175;-39
2023/09/15 01:40:42;;;;;;;2.40;1.85;;;26.80;57.20;;;;;;10490049;28;20048;-35
2023/09/15 01:45:45;;;;;;;2.63;1.77;;;26.90;57.20;;;;;;10484927;28;20084;-33
2023/09/15 01:50:48;;;;;;;3.00;1.60;;;26.80;57.20;;;;;;10494972;28;20079;-30
2023/09/15 01:55:51;;;;;;;4.10;1.65;;;26.80;57.20;;;;;;10494710;28;20049;-32
2023/09/15 02:00:54;;;;;;;3.85;1.60;;;26.80;57.20;;;;;;10486324;28;20076;-36
2023/09/15 02:06:00;;;;;;;3.88;1.70;;;26.70;57.20;;;;;;10498796;28;20068;-32
2023/09/15 02:11:03;;;;;;;2.53;1.73;;;26.80;57.30;;;;;;10498225;28;20046;-33
2023/09/15 02:16:06;;;;;;;3.67;1.85;;;26.70;57.40;;;;;;10494445;28;20101;-31
2023/09/15 02:21:08;;;;;;;2.15;1.70;;;26.70;57.30;;;;;;10489273;28;20107;-35
2023/09/15 02:26:10;;;;;;;4.68;1.67;;;26.70;57.30;;;;;;10486390;28;20765;-36
2023/09/15 02:31:14;;;;;;;3.88;1.65;;;26.60;57.40;;;;;;10504601;28;20058;-34
2023/09/15 02:36:15;;;;;;;3.67;1.83;;;26.60;57.40;;;;;;10477783;28;20056;-31
2023/09/15 02:41:17;;;;;;;4.30;2.10;;;26.60;57.40;;;;;;10482546;28;20044;-34
2023/09/15 02:46:21;;;;;;;3.03;1.90;;;26.60;57.40;;;;;;10491919;28;20052;-35
2023/09/15 02:51:23;;;;;;;2.45;2.00;;;26.60;58.00;;;;;;10491015;28;20072;-35
2023/09/15 02:56:24;;;;;;;2.47;1.58;;;26.50;57.50;;;;;;10505473;28;20143;-32
2023/09/15 03:15:29;;;;;;;2.42;1.70;;;26.30;57.30;;;;;;10477903;27;2056448;-39
2023/09/15 03:20:31;;;;;;;3.45;2.00;;;26.30;57.80;;;;;;10534902;28;20196;-33
2023/09/15 03:25:33;;;;;;;2.33;1.83;;;26.30;57.60;;;;;;10560065;28;20715;-35
2023/09/15 03:30:36;;;;;;;3.05;1.90;;;26.30;57.60;;;;;;10550925;28;20515;-33
2023/09/15 03:35:38;;;;;;;3.30;1.92;;;26.40;57.70;;;;;;10555130;28;20051;-32
2023/09/15 03:40:40;;;;;;;2.90;2.08;;;26.30;57.70;;;;;;10558759;28;20075;-34
2023/09/15 03:45:46;;;;;;;3.75;1.83;;;26.30;58.00;;;;;;10552319;28;20064;-33
2023/09/15 03:50:48;;;;;;;2.03;1.60;;;26.30;57.80;;;;;;10567458;28;20776;-33
2023/09/15 03:55:50;;;;;;;2.58;1.83;;;26.20;57.70;;;;;;10558401;28;20056;-32
2023/09/15 04:00:54;;;;;;;2.33;1.70;;;26.20;57.60;;;;;;10550364;28;20048;-37
2023/09/15 04:05:55;;;;;;;3.30;2.00;;;26.10;57.70;;;;;;10556598;28;20144;-39
2023/09/15 04:10:57;;;;;;;3.08;2.00;;;26.20;57.70;;;;;;10556936;28;20086;-32
2023/09/15 04:16:01;;;;;;;2.15;1.83;;;26.10;57.70;;;;;;10557229;28;20071;-34
2023/09/15 04:21:02;;;;;;;2.85;1.90;;;26.20;57.70;;;;;;10559213;28;20078;-31
2023/09/15 04:26:04;;;;;;;2.88;1.85;;;26.10;57.70;;;;;;10540412;28;20075;-33
2023/09/15 04:31:08;;;;;;;2.42;2.05;;;26.10;57.70;;;;;;10523813;28;20048;-42
2023/09/15 04:36:10;;;;;;;5.80;1.80;;;26.10;57.70;;;;;;10515479;28;20501;-34
2023/09/15 04:41:11;;;;;;;2.53;2.00;;;26.00;57.70;;;;;;10531577;28;20044;-33
2023/09/15 04:46:17;;;;;;;6.53;2.40;;;26.00;57.80;;;;;;10531717;28;20163;-41
2023/09/15 04:51:19;;;;;;;4.28;2.20;;;26.00;57.80;;;;;;10532591;28;20055;-36
2023/09/15 04:56:21;;;;;;;2.10;1.65;;;26.00;57.90;;;;;;10512831;28;20414;-35
2023/09/15 05:01:24;;;;;;;2.90;2.22;;;26.00;57.90;;;;;;10522591;28;20469;-32
2023/09/15 05:06:26;;;;;;;2.75;2.20;;;26.00;57.90;;;;;;10524377;28;20891;-32
2023/09/15 05:11:28;;;;;;;4.20;2.20;;;26.00;57.80;;;;;;10529191;28;20143;-34
2023/09/15 05:16:31;;;;;;;4.57;2.33;;;25.90;57.80;;;;;;10529310;28;20479;-35
2023/09/15 05:21:33;;;;;;;2.95;2.10;;;25.90;57.90;;;;;;10516485;28;20127;-41
2023/09/15 05:26:35;;;;;;;2.78;2.35;;;25.90;58.00;;;;;;10523665;28;20638;-42
2023/09/15 05:31:39;;;;;;;5.63;2.63;;;25.90;58.00;;;;;;10516933;28;20114;-37
2023/09/15 05:36:41;;;;;;;4.13;2.80;;;25.90;58.00;;;;;;10522878;28;20093;-37
2023/09/15 05:41:43;;;;;;;2.72;2.28;;;25.90;58.00;;;;;;10527548;28;20086;-37
2023/09/15 05:46:48;;;;;;;3.53;2.67;;;25.90;58.10;;;;;;10520594;28;20566;-41
2023/09/15 05:51:50;;;;;;;5.25;2.85;;;25.90;58.20;;;;;;10511443;28;20048;-34
2023/09/15 05:56:52;;;;;;;4.55;3.03;;;25.90;58.20;;;;;;10517144;28;20105;-35
2023/09/15 06:01:56;;;;;;;5.28;2.75;;;25.80;58.10;;;;;;10505416;28;20135;-39
2023/09/15 06:06:57;;;;;;;3.60;2.70;;;25.90;58.10;;;;;;10514687;28;20047;-46
2023/09/15 06:11:59;;;;;;;5.28;3.22;;;25.80;57.90;;;;;;10517754;28;20058;-35
2023/09/15 06:17:03;;;;;;;7.97;3.25;;;25.90;58.00;;;;;;10527820;28;20097;-32
2023/09/15 06:22:06;;;;;;;7.65;3.25;;;25.90;57.90;;;;;;10519211;28;20512;-34
2023/09/15 06:27:08;;;;;;;5.30;3.03;;;25.90;57.80;;;;;;10513005;28;20051;-35
2023/09/15 06:32:12;;;;;;;4.85;2.80;;;25.90;57.80;;;;;;10519155;28;20096;-35
2023/09/15 06:37:14;;;;;;;5.40;2.85;;;25.90;57.80;;;;;;10524382;28;20708;-37
2023/09/15 06:42:15;;;;;;;3.65;2.50;;;25.90;57.80;;;;;;10521259;28;20094;-33
2023/09/15 06:47:19;;;;;;;3.28;2.47;;;25.90;57.80;;;;;;10497553;28;20128;-33
2023/09/15 06:52:21;;;;;;;4.50;2.45;;;25.90;57.80;;;;;;10525474;28;20101;-35
2023/09/15 06:57:23;;;;;;;3.38;2.55;;;25.90;57.80;;;;;;10521608;28;20090;-40
2023/09/15 07:02:26;;;;;;;3.38;2.55;;;25.90;57.70;;;;;;10511825;28;20439;-32
2023/09/15 07:07:28;;;;;;;5.22;2.75;;;26.00;57.80;;;;;;10512946;28;20051;-34
2023/09/15 07:12:30;;;;;;;4.60;2.92;;;26.00;57.80;;;;;;10511548;28;20129;-37
2023/09/15 07:17:33;;;;;;;7.70;3.20;;;26.00;57.70;;;;;;10522558;28;20131;-35
2023/09/15 07:22:35;;;;;;;4.43;2.42;;;26.00;57.70;;;;;;10520246;28;20424;-35
2023/09/15 07:27:37;;;;;;;4.28;2.67;;;26.00;57.60;;;;;;10524864;28;20102;-34
2023/09/15 07:32:41;;;;;;;4.13;2.53;;;26.00;57.60;;;;;;10525988;28;20075;-34
2023/09/15 07:37:43;;;;;;;5.53;2.80;;;26.00;57.60;;;;;;10520971;28;20072;-36
2023/09/15 07:42:46;;;;;;;5.70;2.60;;;26.00;57.60;;;;;;10505429;28;20419;-33
2023/09/15 07:47:50;;;;;;;5.45;3.00;;;26.10;57.60;;;;;;10514082;28;20055;-34
2023/09/15 07:52:52;;;;;;;4.28;2.50;;;26.10;57.60;;;;;;10521468;28;20083;-35
2023/09/15 07:57:54;;;;;;;3.38;2.42;;;26.10;57.70;;;;;;10520273;28;20123;-41
2023/09/15 08:02:57;;;;;;;4.75;2.42;;;26.10;57.70;;;;;;10517319;28;20127;-36
2023/09/15 08:07:59;;;;;;;3.65;2.60;;;26.10;57.70;;;;;;10525577;28;20610;-35
2023/09/15 08:13:01;;;;;;;4.00;2.40;;;26.10;57.50;;;;;;10526420;28;20499;-40
2023/09/15 08:18:05;;;;;;;2.88;2.33;;;26.10;57.50;;;;;;10527743;28;20109;-36
2023/09/15 08:23:06;;;;;;;3.80;2.55;;;26.20;57.40;;;;;;10524924;28;20048;-31
2023/09/15 08:28:09;;;;;;;3.60;2.20;;;26.20;57.40;;;;;;10511171;28;20132;-30
2023/09/15 08:33:12;;;;;;;3.10;2.35;;;26.20;57.30;;;;;;10520756;28;20123;-33
2023/09/15 08:38:14;;;;;;;4.75;2.15;;;26.20;57.30;;;;;;10524308;28;20123;-35
2023/09/15 08:43:16;;;;;;;3.47;2.25;;;26.20;57.20;;;;;;10528333;28;20086;-33
2023/09/15 08:48:25;;;;;;;2.92;2.13;;;26.30;57.20;;;;;;10522854;28;20078;-32
2023/09/15 08:53:27;;;;;;;2.78;2.15;;;26.30;57.20;;;;;;10524917;28;20130;-34
2023/09/15 08:58:30;;;;;;;5.80;2.08;;;26.30;57.20;;;;;;10513676;28;20052;-37
2023/09/15 09:03:35;;;;;;;3.47;2.17;;;26.30;57.10;;;;;;10526708;28;20105;-35
2023/09/15 09:08:41;;;;;;;3.72;2.15;;;26.40;57.10;;;;;;10517499;28;20079;-32
2023/09/15 09:13:50;;;;;;;5.53;2.78;;;26.40;57.10;;;;;;10528154;28;20072;-35
2023/09/15 09:18:57;;;;;;;6.57;2.13;;;26.50;56.90;;;;;;10522319;28;20056;-34
2023/09/15 09:23:59;;;;;;;2.55;2.10;;;26.50;56.90;;;;;;10512878;28;20052;-42
2023/09/15 09:29:02;;;;;;;5.75;2.33;;;26.50;56.80;;;;;;10522585;28;20055;-31
2023/09/15 09:34:05;;;;;;;3.40;1.90;;;26.50;56.70;;;;;;10517343;28;20140;-36
2023/09/15 09:39:07;;;;;;;3.65;1.98;;;26.50;56.70;;;;;;10525093;28;20512;-35
2023/09/15 09:44:10;;;;;;;2.83;1.48;;;26.60;56.70;;;;;;10525231;28;20081;-37
2023/09/15 09:49:13;;;;;;;3.38;1.63;;;26.60;56.60;;;;;;10520785;28;20040;-41
2023/09/15 09:54:16;;;;;;;3.90;2.03;;;26.80;56.40;;;;;;10523222;28;20044;-34
2023/09/15 09:59:18;;;;;;;4.38;2.35;;;26.80;56.00;;;;;;10513433;28;20048;-38
2023/09/15 10:04:22;;;;;;;4.05;1.67;;;26.80;56.00;;;;;;10516906;28;20048;-33
2023/09/15 10:09:24;;;;;;;4.25;2.08;;;26.80;56.10;;;;;;10517324;28;20051;-35
2023/09/15 10:14:28;;;;;;;3.00;1.58;;;26.80;56.00;;;;;;10521130;28;20447;-32
2023/09/15 10:19:31;;;;;;;2.28;2.00;;;26.70;56.00;;;;;;10523066;28;20078;-38
2023/09/15 10:24:33;;;;;;;3.45;1.80;;;26.80;56.00;;;;;;10526460;28;20135;-32
2023/09/15 10:29:37;;;;;;;2.25;1.58;;;26.90;55.60;;;;;;10517394;28;20097;-32
2023/09/15 10:34:40;;;;;;;5.75;1.75;;;27.00;55.40;;;;;;10522424;28;20102;-37
2023/09/15 10:39:43;;;;;;;2.78;2.00;;;27.00;55.60;;;;;;10523907;28;20126;-38
2023/09/15 10:44:45;;;;;;;2.80;1.77;;;27.00;55.50;;;;;;10510732;28;20076;-35
2023/09/15 10:49:52;;;;;;;2.72;1.45;;;27.00;55.60;;;;;;10523252;28;20574;-32
2023/09/15 10:54:55;;;;;;;2.08;1.60;;;27.30;55.00;;;;;;10517514;28;20057;-34
2023/09/15 10:59:57;;;;;;;1.85;1.25;;;27.40;54.60;;;;;;10520014;28;20105;-34
2023/09/15 11:05:01;;;;;;;2.03;1.63;;;27.40;54.90;;;;;;10513941;28;20044;-34
2023/09/15 11:10:05;;;;;;;2.10;1.63;;;27.40;54.90;;;;;;10523047;28;20055;-34
2023/09/15 11:15:10;;;;;;;2.38;1.40;;;27.60;54.40;;;;;;10520711;28;20083;-36
2023/09/15 11:20:14;;;;;;;1.67;1.30;;;27.50;54.30;;;;;;10514564;28;20097;-34
2023/09/15 11:25:16;;;;;;;2.90;1.92;;;27.60;54.20;;;;;;10520006;28;20512;-32
2023/09/15 11:30:18;;;;;;;3.20;1.70;;;27.60;54.30;;;;;;10524786;28;20059;-34
2023/09/15 11:35:24;;;;;;;2.20;1.50;;;27.90;53.60;;;;;;10528129;28;20044;-37
2023/09/15 11:40:26;;;;;;;2.92;1.50;;;27.80;53.80;;;;;;10530702;28;20036;-32
2023/09/15 11:45:30;;;;;;;4.57;1.60;;;27.70;54.10;;;;;;10527087;28;20044;-32
2023/09/15 11:50:34;;;;;;;1.33;1.23;;;27.90;53.80;;;;;;10523676;28;20123;-37
2023/09/15 11:55:36;;;;;;;1.63;1.17;;;28.20;53.30;;;;;;10531365;28;20083;-33
2023/09/15 12:00:39;;;;;;;2.75;1.20;;;28.40;53.10;;;;;;10529639;28;20101;-33
2023/09/15 12:05:42;;;;;;;1.80;1.30;;;27.90;54.30;;;;;;10532674;28;20046;-33
2023/09/15 12:10:44;;;;;;;1.77;1.27;;;28.00;54.30;;;;;;10531019;28;20052;-39
2023/09/15 12:15:47;;;;;;;2.75;1.20;;;27.90;54.40;;;;;;10525751;28;20052;-36
2023/09/15 12:20:50;;;;;;;1.90;1.40;;;28.00;54.50;;;;;;10529656;28;20054;-37
2023/09/15 12:25:52;;;;;;;1.80;1.20;;;27.80;54.80;;;;;;10529173;28;20048;-36
2023/09/15 12:30:54;;;;;;;2.10;1.23;;;27.80;54.90;;;;;;10524725;28;20040;-36
2023/09/15 12:36:02;;;;;;;2.08;1.63;;;27.80;54.80;;;;;;10526114;28;20056;-34
2023/09/15 12:41:04;;;;;;;1.98;1.40;;;27.80;54.90;;;;;;10527979;28;20416;-37
2023/09/15 12:46:07;;;;;;;2.72;1.60;;;27.90;54.90;;;;;;10530504;28;20040;-40
2023/09/15 12:51:11;;;;;;;3.88;1.58;;;28.00;54.60;;;;;;10528893;28;20542;-42
2023/09/15 12:56:12;;;;;;;2.38;1.42;;;28.30;53.80;;;;;;10527375;28;20526;-40
2023/09/15 13:01:15;;;;;;;2.00;1.20;;;28.30;54.40;;;;;;10523464;28;20138;-37
2023/09/15 13:06:19;;;;;;;1.90;1.10;;;28.30;54.60;;;;;;10523405;28;20081;-33
2023/09/15 13:11:20;;;;;;;2.58;1.10;;;28.60;54.10;;;;;;10525381;28;20050;-35
2023/09/15 13:16:22;;;;;;;3.58;1.38;;;28.70;53.80;;;;;;10528156;28;20076;-38
2023/09/15 13:21:28;;;;;;;1.77;1.20;;;28.60;54.20;;;;;;10520724;28;20520;-33
2023/09/15 13:26:30;;;;;;;1.00;0.90;;;28.80;53.70;;;;;;10507012;28;20051;-32
2023/09/15 13:31:32;;;;;;;1.50;1.02;;;28.70;54.00;;;;;;10521373;28;20147;-36
2023/09/15 13:36:35;;;;;;;1.85;1.23;;;29.20;53.30;;;;;;10526078;28;20052;-37
2023/09/15 13:41:38;;;;;;;1.65;1.30;;;29.50;52.50;;;;;;10528138;28;20067;-35
2023/09/15 13:46:40;;;;;;;1.80;1.05;;;29.40;53.00;;;;;;10524734;28;20044;-33
2023/09/15 13:51:43;;;;;;;2.03;1.20;;;29.50;52.90;;;;;;10521583;28;20132;-33
2023/09/15 13:56:45;;;;;;;1.90;1.08;;;29.40;53.50;;;;;;10515494;28;20477;-32
2023/09/15 14:01:47;;;;;;;3.33;1.40;;;29.30;53.50;;;;;;10519117;28;20128;-33
2023/09/15 14:06:50;;;;;;;1.60;1.20;;;29.60;52.90;;;;;;10530322;28;20064;-28
2023/09/15 14:11:52;;;;;;;2.00;1.17;;;29.70;54.40;;;;;;10530064;28;20141;-35
2023/09/15 14:16:54;;;;;;;1.58;0.93;;;29.80;52.90;;;;;;10518486;28;20502;-40
2023/09/15 14:21:58;;;;;;;2.85;1.40;;;30.00;52.60;;;;;;10516839;28;20067;-41
2023/09/15 14:27:00;;;;;;;1.50;1.10;;;30.40;51.70;;;;;;10521560;28;20097;-34
2023/09/15 14:32:03;;;;;;;1.98;1.17;;;30.20;52.10;;;;;;10514929;28;20101;-32
2023/09/15 14:37:06;;;;;;;3.17;1.92;;;30.30;53.10;;;;;;10519582;28;20135;-36
2023/09/15 14:42:09;;;;;;;1.45;1.02;;;30.10;52.60;;;;;;10510247;28;20082;-33
2023/09/15 14:47:12;;;;;;;1.55;1.10;;;30.40;55.30;;;;;;10513979;28;20044;-38
2023/09/15 14:52:16;;;;;;;1.73;1.00;;;30.50;52.90;;;;;;10532838;28;20040;-35
2023/09/15 14:57:17;;;;;;;2.15;1.17;;;30.30;52.30;;;;;;10529482;28;20139;-33
2023/09/15 15:02:20;;;;;;;2.80;0.98;;;30.50;52.50;;;;;;10524638;28;20512;-35
2023/09/15 15:07:24;;;;;;;1.92;0.90;;;30.60;55.20;;;;;;10526765;28;20098;-34
2023/09/15 15:12:26;;;;;;;1.48;1.20;;;30.90;56.30;;;;;;10509378;28;20127;-41
2023/09/15 15:17:28;;;;;;;2.35;1.10;;;30.70;54.90;;;;;;10524424;28;20090;-37
2023/09/15 15:22:31;;;;;;;1.98;1.10;;;30.70;55.30;;;;;;10513416;28;20135;-37
2023/09/15 15:27:33;;;;;;;1.17;0.90;;;30.70;54.60;;;;;;10516308;28;20044;-36
2023/09/15 15:32:35;;;;;;;1.02;0.88;;;30.70;54.60;;;;;;10522292;28;20040;-36
2023/09/15 15:37:40;;;;;;;1.27;1.00;;;30.70;55.20;;;;;;10521454;28;20086;-33
2023/09/15 15:42:42;;;;;;;1.63;1.02;;;30.80;55.30;;;;;;10512291;28;20064;-34
2023/09/15 15:47:44;;;;;;;1.05;0.70;;;30.80;54.80;;;;;;10510938;28;20118;-34
2023/09/15 15:52:47;;;;;;;1.55;0.82;;;30.90;54.60;;;;;;10523641;28;20524;-36
2023/09/15 15:57:49;;;;;;;1.45;0.80;;;30.80;54.10;;;;;;10521322;28;20429;-37
2023/09/15 16:02:50;;;;;;;1.50;1.13;;;30.80;53.80;;;;;;10516833;28;20887;-34
2023/09/15 16:07:53;;;;;;;2.67;1.15;;;30.80;53.60;;;;;;10515447;28;20478;-32
2023/09/15 16:12:56;;;;;;;4.95;1.50;;;30.90;53.40;;;;;;10517979;28;20580;-36
2023/09/15 16:18:07;;;;;;;6.65;1.60;;;30.90;53.20;;;;;;10512853;28;20155;-33
2023/09/15 16:23:12;;;;;;;4.40;1.75;;;31.00;52.90;;;;;;10517001;28;20068;-37
2023/09/15 16:28:14;;;;;;;2.15;1.17;;;31.00;52.90;;;;;;10520211;28;20502;-38
2023/09/15 16:33:16;;;;;;;3.10;1.30;;;31.00;53.00;;;;;;10527559;28;20089;-32
2023/09/15 16:38:19;;;;;;;4.65;1.52;;;31.10;53.00;;;;;;10528299;28;20485;-36
2023/09/15 16:43:21;;;;;;;5.95;2.00;;;31.10;52.80;;;;;;10529726;28;20133;-41
2023/09/15 16:48:23;;;;;;;4.63;1.95;;;31.10;52.70;;;;;;10520630;28;20051;-33
2023/09/15 16:53:26;;;;;;;3.72;1.52;;;31.10;52.70;;;;;;10524581;28;20511;-34
2023/09/15 16:58:28;;;;;;;3.03;1.23;;;31.10;52.40;;;;;;10526600;28;20665;-38
2023/09/15 17:03:30;;;;;;;4.18;1.60;;;31.10;52.50;;;;;;10518153;28;20044;-35
2023/09/15 17:08:33;;;;;;;7.57;1.48;;;31.10;52.60;;;;;;10523198;28;20048;-33
2023/09/15 17:13:35;;;;;;;5.22;1.80;;;31.10;52.90;;;;;;10524034;28;20094;-35
2023/09/15 17:18:37;;;;;;;4.75;2.03;;;31.10;52.70;;;;;;10511090;28;20096;-34
2023/09/15 17:23:40;;;;;;;5.38;1.90;;;30.70;51.80;;;;;;10507585;28;20128;-37
2023/09/15 17:28:42;;;;;;;2.35;1.58;;;30.40;51.70;;;;;;10510099;28;20940;-36
2023/09/15 17:33:44;;;;;;;9.70;1.92;;;30.20;51.60;;;;;;10517934;28;20139;-37
2023/09/15 17:38:47;;;;;;;10.57;2.05;;;30.20;51.70;;;;;;10518463;28;20071;-36
2023/09/15 17:43:49;;;;;;;2.45;1.83;;;30.10;52.50;;;;;;10519734;28;20225;-35
2023/09/15 17:48:53;;;;;;;3.08;1.52;;;30.00;51.40;;;;;;10524393;28;20132;-33
2023/09/15 17:53:58;;;;;;;6.45;1.98;;;29.90;52.00;;;;;;10524080;28;20079;-33
2023/09/15 17:59:00;;;;;;;2.97;1.70;;;30.10;52.70;;;;;;10518806;28;20455;-39
2023/09/15 18:04:02;;;;;;;2.47;1.27;;;30.20;52.50;;;;;;10509394;28;20048;-36
2023/09/15 18:09:05;;;;;;;4.13;1.40;;;30.30;54.30;;;;;;10522657;28;20040;-44
2023/09/15 18:14:07;;;;;;;2.40;1.38;;;30.30;52.90;;;;;;10516441;28;20114;-34
2023/09/15 18:19:11;;;;;;;6.13;1.83;;;30.20;53.00;;;;;;10518860;28;20071;-35
2023/09/15 18:24:14;;;;;;;2.08;1.52;;;30.10;53.00;;;;;;10518668;28;20123;-34
2023/09/15 18:29:17;;;;;;;3.15;1.70;;;30.10;53.10;;;;;;10521289;28;20469;-32
2023/09/15 18:34:19;;;;;;;3.63;1.88;;;30.10;53.30;;;;;;10519637;28;20036;-31
2023/09/15 18:39:24;;;;;;;1.83;1.52;;;30.00;53.20;;;;;;10515086;28;20051;-33
2023/09/15 18:44:26;;;;;;;2.72;1.70;;;30.00;53.20;;;;;;10509662;28;20048;-33
2023/09/15 18:49:27;;;;;;;3.30;1.60;;;29.90;53.20;;;;;;10499502;28;20056;-35
2023/09/15 18:54:31;;;;;;;3.60;1.80;;;29.90;53.20;;;;;;10517673;28;20050;-35
2023/09/15 18:59:35;;;;;;;4.93;1.73;;;29.80;53.30;;;;;;10509655;28;20455;-32
2023/09/15 19:04:37;;;;;;;6.13;2.10;;;29.80;53.40;;;;;;10515480;28;20122;-30
2023/09/15 19:09:40;;;;;;;5.55;2.40;;;29.70;53.40;;;;;;10519893;28;20040;-34
2023/09/15 19:14:43;;;;;;;7.28;2.30;;;29.70;53.50;;;;;;10514749;28;20052;-33
2023/09/15 19:19:45;;;;;;;8.80;2.10;;;29.60;53.50;;;;;;10519044;28;20488;-37
2023/09/15 19:24:49;;;;;;;7.25;2.53;;;29.60;53.50;;;;;;10526984;28;20627;-35
2023/09/15 19:29:51;;;;;;;11.68;2.60;;;29.50;53.60;;;;;;10525691;28;20138;-39
2023/09/15 19:34:55;;;;;;;8.32;2.30;;;29.50;53.70;;;;;;10526124;28;20484;-33
2023/09/15 19:39:58;;;;;;;10.07;2.70;;;29.40;53.70;;;;;;10520881;28;20051;-32
2023/09/15 19:45:00;;;;;;;3.90;1.77;;;29.40;53.70;;;;;;10525846;28;20131;-39
2023/09/15 19:50:02;;;;;;;7.88;2.47;;;29.40;53.90;;;;;;10523097;28;20078;-32
2023/09/15 19:55:07;;;;;;;4.30;2.40;;;29.30;53.80;;;;;;10516276;28;20048;-36
2023/09/15 20:00:10;;;;;;;3.78;1.88;;;29.30;53.80;;;;;;10531498;28;20051;-34
2023/09/15 20:05:13;;;;;;;3.22;2.05;;;29.20;53.80;;;;;;10532807;28;20071;-36
2023/09/15 20:10:16;;;;;;;3.90;1.83;;;29.20;53.90;;;;;;10534893;28;20043;-33
2023/09/15 20:15:18;;;;;;;3.10;2.25;;;29.10;53.80;;;;;;10535287;28;20087;-34
2023/09/15 20:20:20;;;;;;;2.05;1.65;;;29.10;53.90;;;;;;10525588;28;20056;-32
2023/09/15 20:25:26;;;;;;;1.90;1.65;;;29.00;54.00;;;;;;10527714;28;20056;-40
2023/09/15 20:30:28;;;;;;;4.40;1.90;;;29.00;54.00;;;;;;10520848;28;20491;-32
2023/09/15 20:35:31;;;;;;;3.80;1.95;;;28.90;54.00;;;;;;10530344;28;20113;-34
2023/09/15 20:40:38;;;;;;;2.20;1.77;;;28.90;54.10;;;;;;10529242;28;20127;-33
2023/09/15 20:45:40;;;;;;;3.30;2.20;;;28.80;54.00;;;;;;10538275;28;20397;-33
2023/09/15 20:50:42;;;;;;;2.90;1.63;;;28.80;54.10;;;;;;10539022;28;20159;-38
2023/09/15 20:55:46;;;;;;;2.20;1.95;;;28.70;54.10;;;;;;10525460;28;20514;-39
2023/09/15 21:00:51;;;;;;;3.20;2.00;;;28.70;54.20;;;;;;10529438;28;20101;-31
2023/09/15 21:05:55;;;;;;;3.88;2.10;;;28.70;54.40;;;;;;10519204;28;20121;-33
2023/09/15 21:10:58;;;;;;;2.42;1.42;;;28.70;54.50;;;;;;10527263;28;20079;-34
2023/09/15 21:16:01;;;;;;;2.13;1.67;;;28.70;54.60;;;;;;10514533;28;20080;-34
2023/09/15 21:21:03;;;;;;;2.45;1.73;;;28.60;54.60;;;;;;10516807;28;20052;-36
2023/09/15 21:26:06;;;;;;;2.05;1.45;;;28.60;54.70;;;;;;10511991;28;20060;-35
2023/09/15 21:31:09;;;;;;;2.42;1.83;;;28.50;54.70;;;;;;10513003;28;20051;-36
2023/09/15 21:36:11;;;;;;;2.05;1.50;;;28.50;54.80;;;;;;10508022;28;20051;-40
2023/09/15 21:41:15;;;;;;;3.00;1.83;;;28.40;54.80;;;;;;10508305;28;20051;-33
2023/09/15 21:46:17;;;;;;;2.28;1.75;;;28.40;54.90;;;;;;10509989;28;20131;-36
2023/09/15 21:51:22;;;;;;;2.58;1.70;;;28.30;55.50;;;;;;10518222;28;20075;-33
2023/09/15 21:56:25;;;;;;;2.65;1.80;;;28.30;54.90;;;;;;10508633;28;20074;-37
2023/09/15 22:01:27;;;;;;;2.22;1.40;;;28.30;55.10;;;;;;10520025;28;20040;-33
2023/09/15 22:06:28;;;;;;;3.28;2.20;;;28.20;55.00;;;;;;10523944;28;20789;-35
2023/09/15 22:11:32;;;;;;;3.25;1.88;;;28.20;55.20;;;;;;10518243;28;20472;-35
2023/09/15 22:16:33;;;;;;;2.33;1.58;;;28.20;55.20;;;;;;10513586;28;20137;-36
2023/09/15 22:21:39;;;;;;;2.47;1.83;;;28.10;55.20;;;;;;10520352;28;20139;-35
2023/09/15 22:26:42;;;;;;;2.03;1.83;;;28.10;55.30;;;;;;10519822;28;20048;-32
2023/09/15 22:31:44;;;;;;;2.33;1.70;;;28.00;55.30;;;;;;10522162;28;20162;-32
2023/09/15 22:36:46;;;;;;;5.18;2.63;;;28.00;55.40;;;;;;10515811;28;20083;-32
2023/09/15 22:41:50;;;;;;;2.95;2.15;;;28.00;55.40;;;;;;10524728;28;20135;-27
2023/09/15 22:46:52;;;;;;;3.30;2.05;;;28.00;55.40;;;;;;10517197;28;20608;-43
2023/09/15 22:51:54;;;;;;;2.13;1.80;;;27.90;55.50;;;;;;10514144;28;20044;-32
2023/09/15 22:56:58;;;;;;;2.70;1.83;;;27.90;55.50;;;;;;10511753;28;20054;-34
2023/09/15 23:02:00;;;;;;;5.32;2.00;;;27.90;55.60;;;;;;10512483;28;20055;-38
2023/09/15 23:07:02;;;;;;;4.05;1.80;;;27.80;55.70;;;;;;10519547;28;20054;-34
2023/09/15 23:12:09;;;;;;;2.63;1.73;;;27.80;55.70;;;;;;10514929;28;20515;-36
2023/09/15 23:17:11;;;;;;;2.42;1.52;;;27.80;55.70;;;;;;10520422;28;20054;-35
2023/09/15 23:22:13;;;;;;;4.43;1.75;;;27.70;55.80;;;;;;10508949;28;20072;-34
2023/09/15 23:27:16;;;;;;;3.08;1.63;;;27.70;56.40;;;;;;10523850;28;20491;-31
2023/09/15 23:32:18;;;;;;;1.80;1.55;;;27.70;55.90;;;;;;10526397;28;20047;-30
2023/09/15 23:37:20;;;;;;;2.75;1.80;;;27.70;55.90;;;;;;10522670;28;20400;-37
2023/09/15 23:42:24;;;;;;;2.83;1.90;;;27.60;55.90;;;;;;10521666;28;20083;-37
2023/09/15 23:47:26;;;;;;;8.70;1.70;;;27.70;56.00;;;;;;10526540;28;20072;-35
2023/09/15 23:52:27;;;;;;;3.55;1.80;;;27.60;56.00;;;;;;10534291;28;20044;-38
2023/09/15 23:57:31;;;;;;;3.95;1.70;;;27.60;56.10;;;;;;10535997;28;20080;-38
